createdAt,value
2022-10-04T00:04:59.586Z,1014.34
2022-10-04T00:10:03.755Z,1014.41
2022-10-04T00:15:07.905Z,1014.44
2022-10-04T00:20:12.119Z,1014.42
2022-10-04T00:25:16.209Z,1014.34
2022-10-04T00:30:20.395Z,1014.36
2022-10-04T00:35:24.570Z,1014.29
2022-10-04T00:40:28.754Z,1014.28
2022-10-04T00:45:32.889Z,1014.12
2022-10-04T00:50:37.033Z,1014.02
2022-10-04T00:55:41.190Z,1014.02
2022-10-04T01:00:45.455Z,1013.95
2022-10-04T01:05:49.511Z,1013.99
2022-10-04T01:10:53.689Z,1014.18
2022-10-04T01:15:57.892Z,1014.11
2022-10-04T01:21:02.022Z,1014.09
2022-10-04T01:26:06.225Z,1013.92
2022-10-04T01:31:10.421Z,1013.89
2022-10-04T01:36:14.483Z,1013.89
2022-10-04T01:41:16.783Z,1013.79
2022-10-04T01:46:20.971Z,1013.67
2022-10-04T01:51:23.222Z,1013.52
2022-10-04T01:56:27.400Z,1013.48
2022-10-04T02:01:31.669Z,1013.42
2022-10-04T02:06:35.686Z,1013.40
2022-10-04T02:11:40.104Z,1013.43
2022-10-04T02:16:44.013Z,1013.42
2022-10-04T02:21:48.216Z,1013.43
2022-10-04T02:26:52.324Z,1013.32
2022-10-04T02:31:56.517Z,1013.22
2022-10-04T02:37:00.674Z,1013.13
2022-10-04T02:42:04.868Z,1013.07
2022-10-04T02:47:08.979Z,1012.98
2022-10-04T02:52:13.146Z,1013.02
2022-10-04T02:57:17.308Z,1013.06
2022-10-04T03:02:28.974Z,1012.94
2022-10-04T03:07:25.634Z,1012.94
2022-10-04T03:12:29.808Z,1012.92
2022-10-04T03:17:33.988Z,1012.91
2022-10-04T03:22:38.169Z,1012.93
2022-10-04T03:27:42.275Z,1012.87
2022-10-04T03:32:46.479Z,1012.88
2022-10-04T03:37:48.742Z,1012.69
2022-10-04T03:42:52.902Z,1012.76
2022-10-04T03:47:55.172Z,1012.73
2022-10-04T03:52:59.319Z,1012.83
2022-10-04T03:58:03.473Z,1012.75
2022-10-04T04:03:07.679Z,1012.66
2022-10-04T04:08:11.806Z,1012.62
2022-10-04T04:13:15.986Z,1012.55
2022-10-04T04:18:20.127Z,1012.62
2022-10-04T04:23:24.370Z,1012.66
2022-10-04T04:28:28.593Z,1012.52
2022-10-04T04:38:36.781Z,1012.45
2022-10-04T04:43:40.956Z,1012.54
2022-10-04T04:48:45.155Z,1012.52
2022-10-04T04:53:49.278Z,1012.44
2022-10-04T04:58:53.517Z,1012.46
2022-10-04T05:03:57.633Z,1012.28
2022-10-04T05:09:01.782Z,1012.21
2022-10-04T05:14:05.962Z,1012.16
2022-10-04T05:19:10.068Z,1012.22
2022-10-04T05:24:14.235Z,1012.14
2022-10-04T05:29:18.408Z,1012.11
2022-10-04T05:34:22.538Z,1012.10
2022-10-04T05:39:24.846Z,1012.12
2022-10-04T05:44:29.007Z,1012.25
2022-10-04T05:49:33.211Z,1012.20
2022-10-04T05:54:37.339Z,1012.23
2022-10-04T05:59:41.500Z,1012.20
2022-10-04T06:04:45.673Z,1012.31
2022-10-04T06:09:49.826Z,1012.18
2022-10-04T06:14:54.009Z,1012.15
2022-10-04T06:19:58.139Z,1012.21
2022-10-04T06:25:02.306Z,1012.09
2022-10-04T06:30:06.514Z,1012.06
2022-10-04T06:35:10.627Z,1012.19
2022-10-04T06:40:14.803Z,1012.17
2022-10-04T06:45:18.932Z,1012.13
2022-10-04T06:50:23.165Z,1012.20
2022-10-04T06:55:27.281Z,1012.23
2022-10-04T07:00:31.447Z,1012.18
2022-10-04T07:05:35.607Z,1012.18
2022-10-04T07:10:39.797Z,1012.24
2022-10-04T07:15:43.952Z,1012.23
2022-10-04T07:20:48.112Z,1012.34
2022-10-04T07:25:50.391Z,1012.31
2022-10-04T07:30:54.617Z,1012.28
2022-10-04T07:35:56.812Z,1012.36
2022-10-04T07:41:00.948Z,1012.31
2022-10-04T07:46:05.163Z,1012.27
2022-10-04T07:51:09.276Z,1012.34
2022-10-04T07:56:13.445Z,1012.35
2022-10-04T08:01:17.663Z,1012.47
2022-10-04T08:06:21.761Z,1012.31
2022-10-04T08:11:25.928Z,1012.24
2022-10-04T08:16:30.093Z,1012.20
2022-10-04T08:21:34.257Z,1012.23
2022-10-04T08:26:38.434Z,1012.07
2022-10-04T08:31:42.630Z,1012.14
2022-10-04T08:36:46.797Z,1012.20
2022-10-04T08:41:50.912Z,1012.23
2022-10-04T08:46:55.180Z,1012.19
2022-10-04T08:51:59.230Z,1012.16
2022-10-04T08:57:03.399Z,1012.15
2022-10-04T09:02:07.509Z,1012.11
2022-10-04T09:07:11.713Z,1012.06
2022-10-04T09:12:15.883Z,1012.09
2022-10-04T09:17:22.297Z,1012.02
2022-10-04T09:22:22.292Z,1011.93
2022-10-04T09:27:50.326Z,1012.07
2022-10-04T09:32:30.623Z,1011.89
2022-10-04T09:37:34.782Z,1011.84
2022-10-04T09:42:38.917Z,1011.79
2022-10-04T09:47:43.342Z,1011.70
2022-10-04T09:52:47.315Z,1011.75
2022-10-04T09:57:51.394Z,1011.64
2022-10-04T10:02:55.710Z,1011.58
2022-10-04T10:07:59.737Z,1011.57
2022-10-04T10:13:03.956Z,1011.60
2022-10-04T10:18:08.086Z,1011.63
2022-10-04T10:23:12.232Z,1011.63
2022-10-04T10:28:16.462Z,1011.63
2022-10-04T10:33:20.636Z,1011.49
2022-10-04T10:38:24.696Z,1011.53
2022-10-04T10:43:28.876Z,1011.48
2022-10-04T10:48:33.025Z,1011.41
2022-10-04T10:53:37.217Z,1011.48
2022-10-04T10:58:41.320Z,1011.45
2022-10-04T11:03:45.637Z,1011.44
2022-10-04T11:08:47.756Z,1011.37
2022-10-04T11:13:51.916Z,1011.38
2022-10-04T11:18:54.171Z,1011.32
2022-10-04T11:23:58.370Z,1011.26
2022-10-04T11:29:02.549Z,1011.14
2022-10-04T11:34:06.683Z,1011.02
2022-10-04T11:39:10.853Z,1011.06
2022-10-04T11:44:14.980Z,1011.00
2022-10-04T11:49:19.185Z,1010.91
2022-10-04T11:54:23.329Z,1010.92
2022-10-04T11:59:27.482Z,1010.87
2022-10-04T12:04:29.791Z,1010.75
2022-10-04T12:09:33.886Z,1010.76
2022-10-04T12:14:38.071Z,1010.66
2022-10-04T12:19:42.225Z,1010.67
2022-10-04T12:24:46.390Z,1010.70
2022-10-04T12:29:50.546Z,1010.57
2022-10-04T12:34:54.692Z,1010.53
2022-10-04T12:39:58.842Z,1010.44
2022-10-04T12:45:03.006Z,1010.43
2022-10-04T12:50:07.160Z,1010.46
2022-10-04T12:55:11.349Z,1010.37
2022-10-04T13:00:16.937Z,1010.22
2022-10-04T13:05:19.769Z,1010.22
2022-10-04T13:10:25.049Z,1010.19
2022-10-04T13:15:24.410Z,1010.12
2022-10-04T13:20:28.350Z,1010.16
2022-10-04T13:25:32.518Z,1010.09
2022-10-04T13:30:34.785Z,1010.11
2022-10-04T13:35:38.950Z,1010.11
2022-10-04T13:40:43.073Z,1010.04
2022-10-04T13:45:47.344Z,1009.92
2022-10-04T13:50:51.394Z,1009.87
2022-10-04T13:55:55.591Z,1009.89
2022-10-04T14:00:59.850Z,1009.79
2022-10-04T14:06:03.917Z,1009.79
2022-10-04T14:11:08.035Z,1009.68
2022-10-04T14:16:12.288Z,1009.74
2022-10-04T14:21:19.443Z,1009.64
2022-10-04T14:26:20.559Z,1009.68
2022-10-04T14:31:24.747Z,1009.72
2022-10-04T14:36:28.878Z,1009.67
2022-10-04T14:41:33.010Z,1009.70
2022-10-04T14:46:37.159Z,1009.62
2022-10-04T14:51:41.345Z,1009.45
2022-10-04T14:56:45.700Z,1009.51
2022-10-04T15:01:49.658Z,1009.45
2022-10-04T15:06:53.819Z,1009.36
2022-10-04T15:12:25.321Z,1009.44
2022-10-04T15:17:00.282Z,1009.46
2022-10-04T15:22:04.386Z,1009.43
2022-10-04T15:27:09.587Z,1009.34
2022-10-04T15:32:10.850Z,1009.23
2022-10-04T15:37:15.005Z,1009.26
2022-10-04T15:42:19.115Z,1009.13
2022-10-04T15:47:23.310Z,1009.25
2022-10-04T15:52:27.467Z,1009.30
2022-10-04T15:57:31.600Z,1009.21
2022-10-04T16:02:35.859Z,1009.20
2022-10-04T16:07:39.925Z,1009.28
2022-10-04T16:12:44.065Z,1009.31
2022-10-04T16:17:48.360Z,1009.38
2022-10-04T16:22:55.520Z,1009.38
2022-10-04T16:27:56.651Z,1009.34
2022-10-04T16:33:00.724Z,1009.22
2022-10-04T16:38:04.913Z,1009.11
2022-10-04T16:43:09.068Z,1008.85
2022-10-04T16:48:13.203Z,1008.84
2022-10-04T16:53:17.379Z,1008.71
2022-10-04T16:58:21.515Z,1008.67
2022-10-04T17:03:25.736Z,1008.75
2022-10-04T17:13:33.999Z,1008.89
2022-10-04T17:18:36.276Z,1008.80
2022-10-04T17:23:40.455Z,1008.74
2022-10-04T17:28:42.703Z,1008.86
2022-10-04T17:33:46.845Z,1008.86
2022-10-04T17:38:49.155Z,1008.92
2022-10-04T17:43:53.335Z,1008.94
2022-10-04T17:48:57.472Z,1008.98
2022-10-04T17:54:01.618Z,1009.05
2022-10-04T17:59:05.787Z,1008.87
2022-10-04T18:04:09.946Z,1008.91
2022-10-04T18:09:18.365Z,1008.89
2022-10-04T18:14:18.258Z,1008.87
2022-10-04T18:19:22.414Z,1008.99
2022-10-04T18:24:26.631Z,1009.03
2022-10-04T18:29:30.751Z,1009.18
2022-10-04T18:34:34.913Z,1009.13
2022-10-04T18:39:39.070Z,1009.19
2022-10-04T18:44:43.240Z,1009.17
2022-10-04T18:49:47.374Z,1009.12
2022-10-04T18:54:51.591Z,1009.11
2022-10-04T18:59:55.707Z,1009.17
2022-10-04T19:04:59.871Z,1009.27
2022-10-04T19:10:04.050Z,1009.43
2022-10-04T19:15:08.241Z,1009.49
2022-10-04T19:20:16.415Z,1009.38
2022-10-04T19:25:14.684Z,1009.31
2022-10-04T19:30:18.804Z,1009.25
2022-10-04T19:35:22.925Z,1009.11
2022-10-04T19:40:27.202Z,1009.11
2022-10-04T19:45:31.439Z,1009.13
2022-10-04T19:50:35.411Z,1009.11
2022-10-04T20:00:43.788Z,1009.24
2022-10-04T20:05:47.915Z,1009.27
2022-10-04T20:10:52.103Z,1009.34
2022-10-04T20:15:56.306Z,1009.37
2022-10-04T20:21:00.428Z,1009.39
2022-10-04T20:26:04.541Z,1009.42
2022-10-04T20:31:08.794Z,1009.36
2022-10-04T20:36:12.880Z,1009.25
2022-10-04T20:41:17.046Z,1009.28
2022-10-04T20:46:21.251Z,1009.27
2022-10-04T20:51:25.491Z,1009.13
2022-10-04T20:56:29.501Z,1009.20
2022-10-04T21:01:33.754Z,1009.06
2022-10-04T21:06:37.862Z,1009.02
2022-10-04T21:11:42.018Z,1009.03
2022-10-04T21:16:44.786Z,1008.98
2022-10-04T21:21:48.457Z,1008.97
2022-10-04T21:26:50.722Z,1009.11
2022-10-04T21:31:54.944Z,1009.07
2022-10-04T21:36:59.031Z,1009.00
2022-10-04T21:42:01.319Z,1009.15
2022-10-04T21:47:05.467Z,1009.19
2022-10-04T21:52:09.661Z,1009.08
2022-10-04T21:57:13.778Z,1009.09
2022-10-04T22:02:17.992Z,1009.10
2022-10-04T22:07:22.183Z,1009.07
2022-10-04T22:12:26.269Z,1009.09
2022-10-04T22:17:30.441Z,1009.12
2022-10-04T22:22:39.622Z,1009.22
2022-10-04T22:27:38.755Z,1009.12
2022-10-04T22:32:42.929Z,1009.05
2022-10-04T22:37:47.060Z,1008.99
2022-10-04T22:42:51.241Z,1008.91
2022-10-04T22:47:55.374Z,1008.98
2022-10-04T22:52:59.571Z,1009.04
2022-10-04T22:58:03.717Z,1009.03
2022-10-04T23:03:07.925Z,1008.95
2022-10-04T23:08:12.063Z,1008.92
2022-10-04T23:13:16.251Z,1008.92
2022-10-04T23:18:20.382Z,1008.76
2022-10-04T23:23:24.516Z,1008.72
2022-10-04T23:28:26.900Z,1008.77
2022-10-04T23:33:30.962Z,1008.68
2022-10-04T23:38:33.219Z,1008.70
2022-10-04T23:43:37.392Z,1008.78
2022-10-04T23:48:41.541Z,1008.79
2022-10-04T23:53:45.745Z,1008.74
2022-10-04T23:58:49.879Z,1008.70
